createdAt,value
2018-02-17T00:01:19.991Z,26.60
2018-02-17T00:03:50.438Z,26.60
2018-02-17T00:06:21.142Z,26.60
2018-02-17T00:08:51.520Z,26.60
2018-02-17T00:11:23.751Z,26.70
2018-02-17T00:13:54.332Z,26.70
2018-02-17T00:16:25.850Z,26.80
2018-02-17T00:18:56.230Z,26.80
2018-02-17T00:21:26.751Z,26.80
2018-02-17T00:23:57.498Z,26.80
2018-02-17T00:26:27.918Z,26.80
2018-02-17T00:28:58.789Z,26.80
2018-02-17T00:31:29.206Z,26.80
2018-02-17T00:33:59.686Z,26.80
2018-02-17T00:36:30.058Z,26.90
2018-02-17T00:39:00.565Z,26.90
2018-02-17T00:41:31.797Z,27.00
2018-02-17T00:44:02.887Z,27.00
2018-02-17T00:46:33.531Z,27.00
2018-02-17T00:49:03.892Z,27.10
2018-02-17T00:51:34.609Z,27.20
2018-02-17T00:54:05.818Z,27.30
2018-02-17T00:56:36.261Z,27.30
2018-02-17T00:59:06.700Z,27.40
2018-02-17T01:01:37.093Z,27.50
2018-02-17T01:04:07.558Z,27.50
2018-02-17T01:06:37.907Z,27.50
2018-02-17T01:09:08.482Z,27.60
2018-02-17T01:11:39.575Z,27.70
2018-02-17T01:14:09.994Z,27.70
2018-02-17T01:16:41.359Z,27.70
2018-02-17T01:19:11.801Z,27.70
2018-02-17T01:21:42.979Z,27.80
2018-02-17T01:24:13.369Z,27.80
2018-02-17T01:26:44.678Z,28.00
2018-02-17T01:29:16.035Z,27.90
2018-02-17T01:31:46.913Z,28.00
2018-02-17T01:34:18.139Z,28.20
2018-02-17T01:36:48.662Z,28.20
2018-02-17T01:39:20.425Z,28.20
2018-02-17T01:41:50.898Z,28.40
2018-02-17T01:44:21.859Z,28.40
2018-02-17T01:46:52.351Z,28.40
2018-02-17T01:49:24.185Z,28.50
2018-02-17T01:51:54.626Z,28.50
2018-02-17T01:54:26.051Z,28.60
2018-02-17T01:56:56.503Z,28.60
2018-02-17T01:59:27.665Z,28.80
2018-02-17T02:01:58.391Z,28.70
2018-02-17T02:04:28.915Z,28.90
2018-02-17T02:07:00.472Z,29.00
2018-02-17T02:09:31.677Z,29.00
2018-02-17T02:12:02.350Z,29.00
2018-02-17T02:14:33.675Z,29.20
2018-02-17T02:17:04.170Z,29.10
2018-02-17T02:19:34.628Z,29.20
2018-02-17T02:22:05.103Z,29.30
2018-02-17T02:24:35.543Z,29.30
2018-02-17T02:27:05.967Z,29.40
2018-02-17T02:29:36.349Z,29.40
2018-02-17T02:32:07.543Z,29.50
2018-02-17T02:34:38.698Z,29.60
2018-02-17T02:37:09.308Z,29.60
2018-02-17T02:39:39.778Z,29.60
2018-02-17T02:42:10.214Z,29.60
2018-02-17T02:44:40.602Z,29.70
2018-02-17T02:47:11.120Z,29.80
2018-02-17T02:49:42.312Z,29.90
2018-02-17T02:52:12.833Z,30.00
2018-02-17T02:54:43.822Z,30.00
2018-02-17T02:57:15.142Z,30.10
2018-02-17T02:59:46.271Z,30.10
2018-02-17T03:02:17.015Z,30.10
2018-02-17T03:04:48.177Z,30.20
2018-02-17T03:07:19.587Z,30.30
2018-02-17T03:09:50.078Z,30.20
2018-02-17T03:12:20.545Z,30.30
2018-02-17T03:14:50.934Z,30.30
2018-02-17T03:17:21.397Z,30.30
2018-02-17T03:19:51.848Z,30.30
2018-02-17T03:22:24.051Z,30.30
2018-02-17T03:24:55.076Z,30.30
2018-02-17T03:27:26.909Z,30.40
2018-02-17T03:29:58.125Z,30.50
2018-02-17T03:32:28.529Z,30.50
2018-02-17T03:34:59.170Z,30.60
2018-02-17T03:37:29.732Z,30.60
2018-02-17T03:40:00.190Z,30.60
2018-02-17T03:42:31.342Z,30.70
2018-02-17T03:45:01.809Z,30.70
2018-02-17T03:47:32.240Z,30.70
2018-02-17T03:50:02.638Z,30.70
2018-02-17T03:52:33.101Z,30.80
2018-02-17T03:55:04.161Z,30.80
2018-02-17T03:57:35.331Z,31.00
2018-02-17T04:00:05.839Z,30.90
2018-02-17T04:02:37.355Z,31.00
2018-02-17T04:05:07.796Z,31.00
2018-02-17T04:07:38.596Z,31.10
2018-02-17T04:10:08.954Z,31.10
2018-02-17T04:12:39.877Z,31.10
2018-02-17T04:15:10.300Z,31.20
2018-02-17T04:17:40.734Z,31.30
2018-02-17T04:20:11.174Z,31.20
2018-02-17T04:22:42.410Z,31.30
2018-02-17T04:25:13.121Z,31.30
2018-02-17T04:27:43.650Z,31.40
2018-02-17T04:30:14.179Z,31.40
2018-02-17T04:32:44.654Z,31.40
2018-02-17T04:35:15.773Z,31.50
2018-02-17T04:37:46.527Z,31.50
2018-02-17T04:40:21.990Z,31.60
2018-02-17T04:43:07.144Z,31.70
2018-02-17T04:45:48.992Z,31.80
2018-02-17T04:48:25.713Z,31.70
2018-02-17T04:51:09.129Z,31.80
2018-02-17T04:53:57.451Z,31.80
2018-02-17T04:56:30.758Z,31.80
2018-02-17T04:59:06.410Z,31.80
2018-02-17T05:01:54.277Z,31.90
2018-02-17T05:04:28.133Z,32.00
2018-02-17T05:06:58.782Z,32.00
2018-02-17T05:09:30.385Z,32.10
2018-02-17T05:12:01.161Z,32.10
2018-02-17T05:14:51.015Z,32.10
2018-02-17T05:17:26.562Z,32.10
2018-02-17T05:20:11.427Z,32.10
2018-02-17T05:22:44.766Z,32.10
2018-02-17T05:25:18.175Z,32.20
2018-02-17T05:27:49.632Z,33.20
2018-02-17T05:30:21.417Z,32.10
2018-02-17T05:33:10.258Z,32.10
2018-02-17T05:35:57.662Z,32.20
2018-02-17T05:38:29.031Z,32.20
2018-02-17T05:41:01.748Z,32.20
2018-02-17T05:43:33.272Z,32.20
2018-02-17T05:46:22.942Z,32.30
2018-02-17T05:48:55.959Z,32.30
2018-02-17T05:51:26.660Z,32.30
2018-02-17T05:53:57.065Z,32.20
2018-02-17T05:56:28.619Z,32.40
2018-02-17T05:59:00.711Z,32.40
2018-02-17T06:01:31.123Z,32.40
2018-02-17T06:04:01.586Z,32.50
2018-02-17T06:06:33.028Z,32.50
2018-02-17T06:09:03.549Z,32.50
2018-02-17T06:11:34.566Z,32.60
2018-02-17T06:14:05.257Z,32.60
2018-02-17T06:16:35.687Z,32.60
2018-02-17T06:19:06.147Z,32.60
2018-02-17T06:21:37.407Z,32.60
2018-02-17T06:24:07.892Z,32.60
2018-02-17T06:26:38.603Z,32.60
2018-02-17T06:29:09.148Z,32.70
2018-02-17T06:31:40.453Z,32.60
2018-02-17T06:34:11.005Z,32.60
2018-02-17T06:36:41.576Z,32.60
2018-02-17T06:39:12.983Z,32.60
2018-02-17T06:41:43.467Z,32.60
2018-02-17T06:44:14.199Z,32.60
2018-02-17T06:46:45.656Z,32.60
2018-02-17T06:49:17.134Z,32.60
2018-02-17T06:51:47.535Z,32.60
2018-02-17T06:54:18.046Z,32.60
2018-02-17T06:56:50.056Z,32.70
2018-02-17T06:59:20.632Z,32.60
2018-02-17T07:01:51.878Z,32.70
2018-02-17T07:04:23.086Z,32.70
2018-02-17T07:06:54.034Z,32.70
2018-02-17T07:09:24.428Z,32.70
2018-02-17T07:11:55.278Z,32.80
2018-02-17T07:14:25.782Z,32.70
2018-02-17T07:16:56.979Z,32.70
2018-02-17T07:19:27.958Z,32.70
2018-02-17T07:21:58.510Z,32.70
2018-02-17T07:24:29.508Z,32.70
2018-02-17T07:27:01.389Z,32.90
2018-02-17T07:29:31.774Z,32.80
2018-02-17T07:32:02.178Z,32.90
2018-02-17T07:34:32.530Z,33.00
2018-02-17T07:37:03.376Z,32.90
2018-02-17T07:39:34.651Z,33.00
2018-02-17T07:42:05.142Z,33.00
2018-02-17T07:44:35.634Z,33.00
2018-02-17T07:47:07.011Z,33.00
2018-02-17T07:49:37.961Z,33.00
2018-02-17T07:52:08.353Z,33.00
2018-02-17T07:54:39.228Z,33.00
2018-02-17T07:57:10.371Z,33.00
2018-02-17T07:59:41.622Z,33.00
2018-02-17T08:02:12.777Z,33.00
2018-02-17T08:04:43.169Z,33.00
2018-02-17T08:07:13.807Z,33.10
2018-02-17T08:09:44.223Z,33.00
2018-02-17T08:12:14.803Z,33.10
2018-02-17T08:14:45.592Z,33.10
2018-02-17T08:17:16.051Z,33.00
2018-02-17T08:19:47.163Z,33.00
2018-02-17T08:22:17.587Z,33.00
2018-02-17T08:24:48.347Z,33.00
2018-02-17T08:27:19.608Z,33.10
2018-02-17T08:29:50.494Z,33.10
2018-02-17T08:32:20.895Z,33.10
2018-02-17T08:34:51.320Z,33.10
2018-02-17T08:37:22.190Z,33.10
2018-02-17T08:39:53.275Z,33.10
2018-02-17T08:45:06.631Z,33.10
2018-02-17T08:47:37.094Z,33.00
2018-02-17T08:50:07.414Z,33.10
2018-02-17T08:52:38.156Z,33.00
2018-02-17T08:55:08.840Z,33.10
2018-02-17T08:57:39.381Z,33.10
2018-02-17T09:00:10.129Z,33.00
2018-02-17T09:02:40.584Z,32.90
2018-02-17T09:05:10.978Z,32.90
2018-02-17T09:07:41.708Z,32.90
2018-02-17T09:10:12.179Z,32.80
2018-02-17T09:12:42.926Z,32.80
2018-02-17T09:15:14.127Z,32.70
2018-02-17T09:17:44.526Z,32.70
2018-02-17T09:20:14.922Z,32.60
2018-02-17T09:22:45.287Z,32.60
2018-02-17T09:25:16.074Z,32.70
2018-02-17T09:27:46.520Z,32.70
2018-02-17T09:30:18.127Z,32.70
2018-02-17T09:32:48.563Z,32.70
2018-02-17T09:35:19.110Z,32.60
2018-02-17T09:37:49.528Z,32.60
2018-02-17T09:40:19.986Z,32.60
2018-02-17T09:42:51.493Z,32.60
2018-02-17T09:45:21.927Z,32.60
2018-02-17T09:47:52.317Z,32.70
2018-02-17T09:50:22.714Z,32.60
2018-02-17T09:52:54.082Z,32.60
2018-02-17T09:55:24.478Z,32.60
2018-02-17T09:57:55.647Z,32.60
2018-02-17T10:00:27.171Z,32.50
2018-02-17T10:02:58.327Z,32.50
2018-02-17T10:05:29.520Z,32.40
2018-02-17T10:07:59.964Z,32.50
2018-02-17T10:10:30.391Z,32.40
2018-02-17T10:13:01.183Z,32.30
2018-02-17T10:15:31.620Z,32.30
2018-02-17T10:18:02.400Z,32.20
2018-02-17T10:20:32.862Z,32.10
2018-02-17T10:23:03.253Z,32.10
2018-02-17T10:25:33.804Z,32.00
2018-02-17T10:28:05.267Z,31.90
2018-02-17T10:30:36.583Z,31.80
2018-02-17T10:33:07.015Z,31.80
2018-02-17T10:35:37.479Z,31.80
2018-02-17T10:38:08.703Z,31.70
2018-02-17T10:40:39.947Z,31.70
2018-02-17T10:43:11.554Z,31.70
2018-02-17T10:45:41.982Z,31.60
2018-02-17T10:48:12.775Z,31.60
2018-02-17T10:50:43.907Z,31.50
2018-02-17T10:53:15.122Z,31.40
2018-02-17T10:55:45.491Z,31.40
2018-02-17T10:58:15.914Z,31.30
2018-02-17T11:00:47.610Z,31.30
2018-02-17T11:03:18.881Z,31.30
2018-02-17T11:05:49.344Z,31.30
2018-02-17T11:08:20.523Z,31.20
2018-02-17T11:10:50.981Z,31.20
2018-02-17T11:13:22.598Z,31.10
2018-02-17T11:15:53.086Z,31.10
2018-02-17T11:18:24.584Z,31.00
2018-02-17T11:20:56.094Z,31.00
2018-02-17T11:23:27.300Z,30.90
2018-02-17T11:25:58.519Z,30.90
2018-02-17T11:28:28.820Z,30.90
2018-02-17T11:30:59.731Z,30.90
2018-02-17T11:33:30.970Z,30.70
2018-02-17T11:36:01.420Z,30.70
2018-02-17T11:38:32.576Z,30.50
2018-02-17T11:41:03.002Z,30.50
2018-02-17T11:43:33.338Z,30.40
2018-02-17T11:46:04.185Z,30.40
2018-02-17T11:48:35.019Z,30.30
2018-02-17T11:51:06.264Z,30.20
2018-02-17T11:53:36.710Z,30.20
2018-02-17T11:56:07.189Z,30.10
2018-02-17T11:58:38.377Z,29.90
2018-02-17T12:01:09.654Z,29.90
2018-02-17T12:03:40.102Z,29.90
2018-02-17T12:06:11.449Z,29.80
2018-02-17T12:08:42.662Z,29.70
2018-02-17T12:11:14.370Z,29.70
2018-02-17T12:13:44.794Z,29.70
2018-02-17T12:16:15.230Z,29.60
2018-02-17T12:18:46.115Z,29.60
2018-02-17T12:21:16.830Z,29.60
2018-02-17T12:23:47.277Z,29.50
2018-02-17T12:26:17.758Z,29.50
2018-02-17T12:28:48.209Z,29.40
2018-02-17T12:31:19.107Z,29.40
2018-02-17T12:33:49.514Z,29.40
2018-02-17T12:36:21.156Z,29.30
2018-02-17T12:38:51.548Z,29.30
2018-02-17T12:41:21.986Z,29.30
2018-02-17T12:43:52.329Z,29.30
2018-02-17T12:46:22.734Z,29.30
2018-02-17T12:48:53.633Z,29.30
2018-02-17T12:51:24.178Z,29.30
2018-02-17T12:53:54.901Z,29.30
2018-02-17T12:56:25.303Z,29.30
2018-02-17T12:58:56.479Z,29.20
2018-02-17T13:01:26.895Z,29.20
2018-02-17T13:03:57.341Z,29.20
2018-02-17T13:06:28.218Z,29.10
2018-02-17T13:08:58.970Z,29.10
2018-02-17T13:11:30.159Z,29.10
2018-02-17T13:14:00.655Z,29.10
2018-02-17T13:16:31.065Z,29.00
2018-02-17T13:19:02.736Z,29.00
2018-02-17T13:21:33.994Z,29.00
2018-02-17T13:24:04.835Z,29.00
2018-02-17T13:26:35.398Z,29.00
2018-02-17T13:29:05.839Z,29.00
2018-02-17T13:31:36.254Z,28.90
2018-02-17T13:34:06.699Z,28.90
2018-02-17T13:36:37.426Z,28.80
2018-02-17T13:39:07.886Z,28.90
2018-02-17T13:41:39.105Z,28.90
2018-02-17T13:44:09.529Z,28.80
2018-02-17T13:46:39.911Z,28.90
2018-02-17T13:49:10.353Z,28.90
2018-02-17T13:51:40.796Z,28.90
2018-02-17T13:54:11.670Z,29.00
2018-02-17T13:56:42.970Z,29.00
2018-02-17T13:59:13.311Z,29.00
2018-02-17T14:01:43.796Z,28.90
2018-02-17T14:04:14.984Z,28.80
2018-02-17T14:06:45.703Z,28.80
2018-02-17T14:09:16.905Z,28.80
2018-02-17T14:11:47.389Z,28.80
2018-02-17T14:14:18.021Z,28.70
2018-02-17T14:16:48.795Z,28.70
2018-02-17T14:19:19.272Z,28.80
2018-02-17T14:21:49.964Z,28.80
2018-02-17T14:24:20.789Z,28.80
2018-02-17T14:26:51.186Z,28.80
2018-02-17T14:29:21.629Z,28.80
2018-02-17T14:31:52.850Z,28.80
2018-02-17T14:34:23.309Z,28.80
2018-02-17T14:36:54.828Z,28.60
2018-02-17T14:39:25.433Z,28.60
2018-02-17T14:41:56.207Z,28.60
2018-02-17T14:44:27.276Z,28.60
2018-02-17T14:46:57.696Z,28.50
2018-02-17T14:49:28.356Z,28.50
2018-02-17T14:51:59.185Z,28.50
2018-02-17T14:54:30.058Z,28.40
2018-02-17T14:57:00.447Z,28.40
2018-02-17T14:59:30.912Z,28.50
2018-02-17T15:02:01.992Z,28.40
2018-02-17T15:04:33.134Z,28.50
2018-02-17T15:07:04.703Z,28.60
2018-02-17T15:09:35.147Z,28.60
2018-02-17T15:12:05.871Z,28.60
2018-02-17T15:14:36.314Z,28.60
2018-02-17T15:17:06.786Z,28.60
2018-02-17T15:19:37.234Z,28.50
2018-02-17T15:22:07.762Z,28.50
2018-02-17T15:24:39.268Z,28.50
2018-02-17T15:27:09.761Z,28.50
2018-02-17T15:29:40.419Z,28.50
2018-02-17T15:32:10.957Z,28.40
2018-02-17T15:34:41.474Z,28.40
2018-02-17T15:37:12.033Z,28.40
2018-02-17T15:39:42.474Z,28.40
2018-02-17T15:42:14.032Z,28.30
2018-02-17T15:44:45.190Z,28.30
2018-02-17T15:47:15.663Z,28.30
2018-02-17T15:49:46.165Z,28.30
2018-02-17T15:52:16.949Z,28.30
2018-02-17T15:54:47.528Z,28.20
2018-02-17T15:57:18.033Z,28.20
2018-02-17T15:59:49.622Z,28.10
2018-02-17T16:02:20.092Z,28.10
2018-02-17T16:04:50.713Z,28.10
2018-02-17T16:07:21.385Z,28.10
2018-02-17T16:09:52.855Z,28.10
2018-02-17T16:12:23.894Z,28.10
2018-02-17T16:14:54.460Z,28.10
2018-02-17T16:17:25.170Z,28.10
2018-02-17T16:19:55.716Z,28.00
2018-02-17T16:22:26.427Z,28.00
2018-02-17T16:24:57.050Z,27.90
2018-02-17T16:27:27.608Z,27.90
2018-02-17T16:29:58.385Z,27.90
2018-02-17T16:32:29.789Z,27.90
2018-02-17T16:35:00.226Z,27.90
2018-02-17T16:37:30.624Z,27.90
2018-02-17T16:40:01.402Z,27.90
2018-02-17T16:42:32.366Z,27.90
2018-02-17T16:45:03.764Z,27.90
2018-02-17T16:47:34.218Z,27.90
2018-02-17T16:50:04.724Z,27.90
2018-02-17T16:52:35.173Z,27.80
2018-02-17T16:55:06.135Z,27.80
2018-02-17T16:57:37.404Z,27.80
2018-02-17T17:00:08.401Z,27.80
2018-02-17T17:02:38.953Z,27.80
2018-02-17T17:05:09.470Z,27.80
2018-02-17T17:07:40.819Z,27.80
2018-02-17T17:10:12.279Z,27.80
2018-02-17T17:12:43.954Z,27.70
2018-02-17T17:15:14.457Z,27.70
2018-02-17T17:17:45.981Z,27.70
2018-02-17T17:20:16.412Z,27.70
2018-02-17T17:22:46.906Z,27.70
2018-02-17T17:25:17.390Z,27.70
2018-02-17T17:27:48.928Z,27.60
2018-02-17T17:30:19.981Z,27.60
2018-02-17T17:32:51.446Z,27.50
2018-02-17T17:35:21.884Z,27.50
2018-02-17T17:37:52.338Z,27.50
2018-02-17T17:40:22.855Z,27.50
2018-02-17T17:42:53.694Z,27.50
2018-02-17T17:45:24.209Z,27.50
2018-02-17T17:47:55.011Z,27.50
2018-02-17T17:50:26.175Z,27.50
2018-02-17T17:52:56.557Z,27.50
2018-02-17T17:55:27.021Z,27.50
2018-02-17T17:57:58.190Z,27.50
2018-02-17T18:00:29.088Z,27.50
2018-02-17T18:03:00.314Z,27.50
2018-02-17T18:05:30.750Z,27.50
2018-02-17T18:08:01.246Z,27.50
2018-02-17T18:10:31.715Z,27.50
2018-02-17T18:13:02.916Z,27.40
2018-02-17T18:15:33.395Z,27.40
2018-02-17T18:18:05.094Z,27.40
2018-02-17T18:20:35.483Z,27.40
2018-02-17T18:23:06.707Z,27.40
2018-02-17T18:25:37.147Z,27.30
2018-02-17T18:28:08.342Z,27.30
2018-02-17T18:30:39.367Z,27.30
2018-02-17T18:33:10.079Z,27.20
2018-02-17T18:35:40.530Z,27.10
2018-02-17T18:38:11.002Z,27.10
2018-02-17T18:40:41.421Z,27.10
2018-02-17T18:43:11.836Z,27.20
2018-02-17T18:45:42.309Z,27.20
2018-02-17T18:48:13.962Z,27.20
2018-02-17T18:50:44.415Z,27.20
2018-02-17T18:53:14.813Z,27.10
2018-02-17T18:55:46.060Z,27.00
2018-02-17T18:58:17.225Z,27.10
2018-02-17T19:00:47.991Z,27.10
2018-02-17T19:03:18.484Z,27.10
2018-02-17T19:05:49.138Z,27.20
2018-02-17T19:08:19.646Z,27.20
2018-02-17T19:10:50.321Z,27.20
2018-02-17T19:13:20.812Z,27.20
2018-02-17T19:15:52.019Z,27.20
2018-02-17T19:18:23.406Z,27.20
2018-02-17T19:20:53.822Z,27.10
2018-02-17T19:23:24.241Z,27.10
2018-02-17T19:25:54.626Z,27.10
2018-02-17T19:28:25.127Z,27.00
2018-02-17T19:30:56.748Z,26.90
2018-02-17T19:33:27.138Z,26.90
2018-02-17T19:35:57.819Z,26.90
2018-02-17T19:38:28.226Z,27.00
2018-02-17T19:40:59.478Z,27.10
2018-02-17T19:43:29.844Z,27.00
2018-02-17T19:46:00.250Z,27.10
2018-02-17T19:48:35.849Z,27.10
2018-02-17T19:51:06.294Z,27.10
2018-02-17T19:53:37.518Z,27.10
2018-02-17T19:56:08.245Z,27.10
2018-02-17T19:58:38.673Z,27.10
2018-02-17T20:01:09.147Z,27.10
2018-02-17T20:03:39.568Z,27.10
2018-02-17T20:06:10.275Z,27.20
2018-02-17T20:08:41.485Z,27.10
2018-02-17T20:11:11.952Z,27.10
2018-02-17T20:13:43.320Z,27.00
2018-02-17T20:16:13.725Z,27.00
2018-02-17T20:18:45.181Z,26.90
2018-02-17T20:21:16.701Z,26.90
2018-02-17T20:23:47.619Z,26.80
2018-02-17T20:26:18.036Z,26.80
2018-02-17T20:28:48.447Z,26.90
2018-02-17T20:31:18.874Z,26.90
2018-02-17T20:33:49.560Z,26.90
2018-02-17T20:36:20.436Z,26.90
2018-02-17T20:38:50.897Z,26.90
2018-02-17T20:41:21.386Z,26.90
2018-02-17T20:43:51.774Z,26.90
2018-02-17T20:46:22.217Z,26.90
2018-02-17T20:48:53.392Z,26.90
2018-02-17T20:51:24.489Z,26.90
2018-02-17T20:53:55.250Z,26.80
2018-02-17T20:56:26.415Z,26.90
2018-02-17T20:58:56.813Z,26.90
2018-02-17T21:01:28.036Z,27.00
2018-02-17T21:03:58.426Z,27.00
2018-02-17T21:06:29.217Z,27.00
2018-02-17T21:09:00.427Z,27.00
2018-02-17T21:11:30.861Z,27.00
2018-02-17T21:14:01.242Z,27.00
2018-02-17T21:16:31.701Z,27.00
2018-02-17T21:19:02.393Z,27.00
2018-02-17T21:21:33.103Z,27.00
2018-02-17T21:24:04.699Z,27.00
2018-02-17T21:26:35.155Z,27.00
2018-02-17T21:29:05.645Z,27.00
2018-02-17T21:31:36.118Z,27.10
2018-02-17T21:34:06.597Z,27.10
2018-02-17T21:36:37.110Z,27.00
2018-02-17T21:39:08.311Z,27.10
2018-02-17T21:41:38.813Z,27.00
2018-02-17T21:44:09.218Z,27.10
2018-02-17T21:46:39.649Z,27.10
2018-02-17T21:49:10.075Z,27.10
2018-02-17T21:51:40.504Z,27.10
2018-02-17T21:54:11.334Z,27.10
2018-02-17T21:56:41.729Z,27.10
2018-02-17T21:59:12.887Z,27.10
2018-02-17T22:01:44.092Z,27.20
2018-02-17T22:04:14.453Z,27.20
2018-02-17T22:06:45.747Z,27.20
2018-02-17T22:09:16.120Z,27.20
2018-02-17T22:11:47.600Z,27.20
2018-02-17T22:14:18.118Z,27.10
2018-02-17T22:16:48.448Z,27.10
2018-02-17T22:19:18.941Z,27.10
2018-02-17T22:21:49.417Z,27.00
2018-02-17T22:24:20.312Z,27.00
2018-02-17T22:26:51.493Z,26.90
2018-02-17T22:29:21.969Z,26.90
2018-02-17T22:31:52.905Z,26.90
2018-02-17T22:34:23.370Z,26.90
2018-02-17T22:36:54.500Z,26.90
2018-02-17T22:39:25.831Z,26.90
2018-02-17T22:41:56.546Z,26.90
2018-02-17T22:44:26.969Z,26.90
2018-02-17T22:46:57.415Z,26.80
2018-02-17T22:49:27.881Z,26.90
2018-02-17T22:51:58.315Z,26.80
2018-02-17T22:54:29.030Z,26.80
2018-02-17T22:57:00.240Z,26.90
2018-02-17T22:59:30.836Z,26.90
2018-02-17T23:02:01.239Z,26.90
2018-02-17T23:04:31.698Z,26.90
2018-02-17T23:07:02.158Z,26.90
2018-02-17T23:09:32.566Z,26.90
2018-02-17T23:12:03.346Z,26.90
2018-02-17T23:14:34.488Z,26.80
2018-02-17T23:17:05.624Z,26.80
2018-02-17T23:19:37.059Z,26.80
2018-02-17T23:22:08.437Z,26.80
2018-02-17T23:24:39.493Z,26.70
2018-02-17T23:27:10.022Z,26.70
2018-02-17T23:29:40.800Z,26.70
2018-02-17T23:32:11.182Z,26.70
2018-02-17T23:34:41.626Z,26.60
2018-02-17T23:37:12.132Z,26.60
2018-02-17T23:39:42.617Z,26.60
2018-02-17T23:42:13.118Z,26.60
2018-02-17T23:44:43.549Z,26.60
2018-02-17T23:47:14.320Z,26.60
2018-02-17T23:49:45.585Z,26.50
2018-02-17T23:52:15.969Z,26.60
2018-02-17T23:54:46.368Z,26.50
2018-02-17T23:57:16.839Z,26.50
2018-02-17T23:59:48.366Z,26.60
